EJU323 LFPG-EDDS
Flight info
| Callsign | EJU323 |
|---|---|
| Flight time | 0h 40m |
| Altitude | 27000 |
| Route | LANVI DCT LUPEN T126 REUTL REUTL5A |
| Aircraft | A320/M-SDE3FGHIRWY/LB1 |
Departure
| Time | 2026-05-04 15:06 |
|---|---|
| Airport | Charles de Gaulle International Airport (LFPG) |
Arrival
| Time | 2026-05-04 15:46 |
|---|---|
| Airport | Stuttgart Airport (EDDS) |
| Time | Latitude | Longitude | Altitude | Speed | Heading |
|---|---|---|---|---|---|
| 2026-05-04 14:48 | 49.01709 | 2.54088 | 355 ft | 0 kts | 209° |
| 2026-05-04 14:56 | 49.01705 | 2.54083 | 355 ft | 4 kts | 219° |
| 2026-05-04 14:56 | 49.01715 | 2.54045 | 356 ft | 3 kts | 340° |
| 2026-05-04 14:56 | 49.01720 | 2.54048 | 360 ft | 2 kts | 17° |
| 2026-05-04 14:56 | 49.01748 | 2.54085 | 357 ft | 6 kts | 50° |
| 2026-05-04 14:57 | 49.01796 | 2.54144 | 356 ft | 11 kts | 4° |
| 2026-05-04 14:57 | 49.01843 | 2.54136 | 355 ft | 8 kts | 351° |
| 2026-05-04 14:57 | 49.01896 | 2.54075 | 357 ft | 10 kts | 284° |
| 2026-05-04 14:57 | 49.01894 | 2.54006 | 355 ft | 9 kts | 264° |
| 2026-05-04 14:58 | 49.01883 | 2.53813 | 355 ft | 21 kts | 266° |
| 2026-05-04 14:58 | 49.01876 | 2.53673 | 355 ft | 19 kts | 265° |
| 2026-05-04 14:58 | 49.01866 | 2.53496 | 360 ft | 18 kts | 263° |
| 2026-05-04 14:58 | 49.01857 | 2.53322 | 355 ft | 15 kts | 265° |
| 2026-05-04 14:59 | 49.01849 | 2.53184 | 355 ft | 11 kts | 266° |
| 2026-05-04 14:59 | 49.01853 | 2.53082 | 355 ft | 9 kts | 303° |
| 2026-05-04 14:59 | 49.01905 | 2.53039 | 355 ft | 0 kts | 355° |
| 2026-05-04 15:00 | 49.01951 | 2.53033 | 355 ft | 13 kts | 356° |
| 2026-05-04 15:00 | 49.02006 | 2.52999 | 359 ft | 3 kts | 265° |
| 2026-05-04 15:00 | 49.01981 | 2.52909 | 358 ft | 15 kts | 243° |
| 2026-05-04 15:01 | 49.01825 | 2.52680 | 358 ft | 16 kts | 254° |
| 2026-05-04 15:01 | 49.01814 | 2.52509 | 361 ft | 17 kts | 266° |
| 2026-05-04 15:01 | 49.01826 | 2.52380 | 358 ft | 10 kts | 309° |
| 2026-05-04 15:01 | 49.01882 | 2.52326 | 358 ft | 10 kts | 306° |
| 2026-05-04 15:02 | 49.01888 | 2.52226 | 362 ft | 9 kts | 264° |
| 2026-05-04 15:02 | 49.01882 | 2.52134 | 355 ft | 8 kts | 265° |
| 2026-05-04 15:02 | 49.01876 | 2.51996 | 358 ft | 17 kts | 264° |
| 2026-05-04 15:02 | 49.01865 | 2.51803 | 357 ft | 19 kts | 265° |
| 2026-05-04 15:03 | 49.01855 | 2.51621 | 355 ft | 18 kts | 265° |
| 2026-05-04 15:03 | 49.01846 | 2.51454 | 355 ft | 15 kts | 265° |
| 2026-05-04 15:03 | 49.01864 | 2.51301 | 359 ft | 15 kts | 303° |
| 2026-05-04 15:03 | 49.01929 | 2.51252 | 355 ft | 9 kts | 356° |
| 2026-05-04 15:04 | 49.01992 | 2.51278 | 361 ft | 12 kts | 34° |
| 2026-05-04 15:04 | 49.02057 | 2.51371 | 355 ft | 14 kts | 51° |
| 2026-05-04 15:04 | 49.02070 | 2.51442 | 355 ft | 0 kts | 84° |
| 2026-05-04 15:05 | 49.02071 | 2.51450 | 355 ft | 5 kts | 84° |
| 2026-05-04 15:05 | 49.02093 | 2.51863 | 355 ft | 83 kts | 86° |
| 2026-05-04 15:05 | 49.02158 | 2.53133 | 355 ft | 154 kts | 87° |
| 2026-05-04 15:06 | 49.02239 | 2.54966 | 763 ft | 181 kts | 85° |
| 2026-05-04 15:06 | 49.02371 | 2.56871 | 1720 ft | 183 kts | 83° |
| 2026-05-04 15:06 | 49.02504 | 2.58848 | 2522 ft | 190 kts | 84° |
| 2026-05-04 15:07 | 49.02723 | 2.63106 | 3350 ft | 216 kts | 86° |
| 2026-05-04 15:07 | 49.02837 | 2.65482 | 3761 ft | 234 kts | 85° |
| 2026-05-04 15:07 | 49.02963 | 2.68040 | 4275 ft | 251 kts | 85° |
| 2026-05-04 15:07 | 49.03100 | 2.70769 | 4923 ft | 263 kts | 85° |
| 2026-05-04 15:08 | 49.03239 | 2.73574 | 5766 ft | 267 kts | 85° |
| 2026-05-04 15:08 | 49.03374 | 2.76406 | 6625 ft | 270 kts | 85° |
| 2026-05-04 15:08 | 49.03511 | 2.79275 | 7471 ft | 273 kts | 85° |
| 2026-05-04 15:08 | 49.03653 | 2.82180 | 8298 ft | 277 kts | 85° |
| 2026-05-04 15:09 | 49.03795 | 2.85126 | 9143 ft | 279 kts | 85° |
| 2026-05-04 15:09 | 49.03938 | 2.88095 | 9937 ft | 284 kts | 85° |
| 2026-05-04 15:09 | 49.04083 | 2.91148 | 10482 ft | 296 kts | 86° |
| 2026-05-04 15:10 | 49.03721 | 2.97691 | 11252 ft | 329 kts | 104° |
| 2026-05-04 15:10 | 49.03129 | 3.01159 | 11595 ft | 345 kts | 104° |
| 2026-05-04 15:10 | 49.01890 | 3.08362 | 12848 ft | 356 kts | 104° |
| 2026-05-04 15:11 | 49.01262 | 3.12004 | 13533 ft | 359 kts | 105° |
| 2026-05-04 15:11 | 49.00622 | 3.15723 | 14157 ft | 363 kts | 105° |
| 2026-05-04 15:11 | 48.99981 | 3.19458 | 14752 ft | 367 kts | 105° |
| 2026-05-04 15:11 | 48.99331 | 3.23236 | 15387 ft | 371 kts | 105° |
| 2026-05-04 15:12 | 48.98671 | 3.27062 | 15985 ft | 375 kts | 105° |
| 2026-05-04 15:12 | 48.98004 | 3.30911 | 16549 ft | 379 kts | 105° |
| 2026-05-04 15:12 | 48.97324 | 3.34825 | 17103 ft | 383 kts | 106° |
| 2026-05-04 15:12 | 48.96636 | 3.38768 | 17674 ft | 387 kts | 106° |
| 2026-05-04 15:13 | 48.95940 | 3.42749 | 18225 ft | 391 kts | 106° |
| 2026-05-04 15:13 | 48.95237 | 3.46768 | 18725 ft | 395 kts | 107° |
| 2026-05-04 15:13 | 48.94524 | 3.50823 | 19227 ft | 398 kts | 107° |
| 2026-05-04 15:13 | 48.93866 | 3.54933 | 19738 ft | 402 kts | 101° |
| 2026-05-04 15:14 | 48.93574 | 3.59189 | 20250 ft | 407 kts | 96° |
| 2026-05-04 15:14 | 48.93359 | 3.63502 | 20742 ft | 410 kts | 96° |
| 2026-05-04 15:14 | 48.93137 | 3.67845 | 21216 ft | 414 kts | 97° |
| 2026-05-04 15:14 | 48.92909 | 3.72218 | 21695 ft | 417 kts | 97° |
| 2026-05-04 15:15 | 48.92673 | 3.76633 | 22169 ft | 420 kts | 97° |
| 2026-05-04 15:15 | 48.92431 | 3.81080 | 22646 ft | 424 kts | 98° |
| 2026-05-04 15:15 | 48.92184 | 3.85564 | 23066 ft | 427 kts | 98° |
| 2026-05-04 15:16 | 48.91681 | 3.94610 | 23836 ft | 433 kts | 98° |
| 2026-05-04 15:16 | 48.91425 | 3.99183 | 24184 ft | 435 kts | 98° |
| 2026-05-04 15:16 | 48.90908 | 4.08395 | 24873 ft | 439 kts | 99° |
| 2026-05-04 15:17 | 48.90644 | 4.13037 | 25201 ft | 441 kts | 99° |
| 2026-05-04 15:17 | 48.89733 | 4.22241 | 25872 ft | 438 kts | 111° |
| 2026-05-04 15:17 | 48.88662 | 4.26547 | 26204 ft | 435 kts | 120° |
| 2026-05-04 15:18 | 48.87229 | 4.30576 | 26525 ft | 434 kts | 124° |
| 2026-05-04 15:18 | 48.85751 | 4.34579 | 26840 ft | 435 kts | 124° |
| 2026-05-04 15:18 | 48.84278 | 4.38586 | 26953 ft | 435 kts | 124° |
| 2026-05-04 15:19 | 48.81355 | 4.46561 | 26969 ft | 435 kts | 124° |
| 2026-05-04 15:19 | 48.79887 | 4.50559 | 26971 ft | 435 kts | 124° |
| 2026-05-04 15:19 | 48.76936 | 4.58573 | 26967 ft | 435 kts | 124° |
| 2026-05-04 15:20 | 48.75462 | 4.62565 | 26970 ft | 435 kts | 124° |
| 2026-05-04 15:20 | 48.73986 | 4.66557 | 26974 ft | 435 kts | 124° |
| 2026-05-04 15:20 | 48.72508 | 4.70555 | 26972 ft | 435 kts | 124° |
| 2026-05-04 15:20 | 48.71031 | 4.74547 | 26972 ft | 435 kts | 124° |
| 2026-05-04 15:21 | 48.69546 | 4.78539 | 26973 ft | 435 kts | 124° |
| 2026-05-04 15:21 | 48.68052 | 4.82541 | 26973 ft | 435 kts | 124° |
| 2026-05-04 15:21 | 48.65074 | 4.90501 | 26976 ft | 434 kts | 124° |
| 2026-05-04 15:22 | 48.63590 | 4.94476 | 26982 ft | 434 kts | 124° |
| 2026-05-04 15:22 | 48.62106 | 4.98454 | 26985 ft | 434 kts | 124° |
| 2026-05-04 15:22 | 48.59135 | 5.06386 | 26989 ft | 433 kts | 124° |
| 2026-05-04 15:23 | 48.57648 | 5.10342 | 26985 ft | 433 kts | 124° |
| 2026-05-04 15:23 | 48.56157 | 5.14291 | 26983 ft | 432 kts | 125° |
| 2026-05-04 15:23 | 48.54689 | 5.18171 | 26983 ft | 432 kts | 125° |
| 2026-05-04 15:23 | 48.53179 | 5.22157 | 26986 ft | 432 kts | 125° |
| 2026-05-04 15:24 | 48.50203 | 5.30003 | 26987 ft | 431 kts | 125° |
| 2026-05-04 15:24 | 48.47239 | 5.37792 | 26989 ft | 431 kts | 125° |
| 2026-05-04 15:25 | 48.45729 | 5.41763 | 26990 ft | 431 kts | 125° |
| 2026-05-04 15:25 | 48.44240 | 5.45683 | 26991 ft | 431 kts | 125° |
| 2026-05-04 15:25 | 48.42756 | 5.49587 | 26991 ft | 430 kts | 125° |
| 2026-05-04 15:26 | 48.37693 | 5.62792 | 26998 ft | 430 kts | 125° |
| 2026-05-04 15:26 | 48.34655 | 5.70665 | 26998 ft | 430 kts | 125° |
| 2026-05-04 15:26 | 48.31790 | 5.88244 | 26988 ft | 456 kts | 88° |
| 2026-05-04 15:27 | 48.32503 | 5.97713 | 26995 ft | 456 kts | 89° |
| 2026-05-04 15:27 | 48.33784 | 6.16718 | 27018 ft | 457 kts | 89° |
| 2026-05-04 15:28 | 48.35065 | 6.35546 | 27020 ft | 457 kts | 88° |
| 2026-05-04 15:28 | 48.35704 | 6.45057 | 27020 ft | 456 kts | 88° |
| 2026-05-04 15:28 | 48.36951 | 6.64033 | 27009 ft | 456 kts | 88° |
| 2026-05-04 15:29 | 48.37566 | 6.73542 | 27004 ft | 456 kts | 88° |
| 2026-05-04 15:30 | 48.39907 | 7.11059 | 24164 ft | 437 kts | 88° |
| 2026-05-04 15:30 | 48.42924 | 7.37487 | 20598 ft | 419 kts | 80° |
| 2026-05-04 15:31 | 48.44516 | 7.48818 | 19228 ft | 410 kts | 81° |
| 2026-05-04 15:31 | 48.45086 | 7.53012 | 18725 ft | 407 kts | 81° |
| 2026-05-04 15:32 | 48.46755 | 7.65427 | 17147 ft | 398 kts | 80° |
| 2026-05-04 15:32 | 48.47842 | 7.73528 | 16115 ft | 392 kts | 80° |
| 2026-05-04 15:33 | 48.48915 | 7.81492 | 15121 ft | 386 kts | 80° |
| 2026-05-04 15:34 | 48.50488 | 7.93266 | 13644 ft | 377 kts | 80° |
| 2026-05-04 15:34 | 48.50995 | 7.97130 | 13111 ft | 374 kts | 80° |
| 2026-05-04 15:34 | 48.51991 | 8.04718 | 12448 ft | 358 kts | 80° |
| 2026-05-04 15:35 | 48.52928 | 8.11837 | 12088 ft | 336 kts | 81° |
| 2026-05-04 15:35 | 48.53378 | 8.15274 | 11668 ft | 334 kts | 81° |
| 2026-05-04 15:35 | 48.53824 | 8.18710 | 11211 ft | 333 kts | 81° |
| 2026-05-04 15:36 | 48.54709 | 8.25538 | 10330 ft | 330 kts | 81° |
| 2026-05-04 15:36 | 48.55147 | 8.28932 | 9904 ft | 330 kts | 81° |
| 2026-05-04 15:36 | 48.55585 | 8.32322 | 9434 ft | 329 kts | 81° |
| 2026-05-04 15:37 | 48.56022 | 8.35704 | 8962 ft | 326 kts | 81° |
| 2026-05-04 15:37 | 48.56454 | 8.39046 | 8541 ft | 323 kts | 81° |
| 2026-05-04 15:37 | 48.56881 | 8.42356 | 8135 ft | 320 kts | 81° |
| 2026-05-04 15:37 | 48.57291 | 8.45555 | 7968 ft | 297 kts | 81° |
| 2026-05-04 15:38 | 48.57671 | 8.48533 | 7976 ft | 284 kts | 81° |
| 2026-05-04 15:38 | 48.58040 | 8.51436 | 7846 ft | 285 kts | 81° |
| 2026-05-04 15:38 | 48.58412 | 8.54367 | 7553 ft | 283 kts | 81° |
| 2026-05-04 15:38 | 48.58778 | 8.57270 | 7253 ft | 280 kts | 81° |
| 2026-05-04 15:39 | 48.59141 | 8.60153 | 6960 ft | 279 kts | 81° |
| 2026-05-04 15:39 | 48.59503 | 8.63024 | 6675 ft | 277 kts | 81° |
| 2026-05-04 15:39 | 48.60216 | 8.68710 | 6066 ft | 274 kts | 81° |
| 2026-05-04 15:40 | 48.60570 | 8.71523 | 5756 ft | 272 kts | 81° |
| 2026-05-04 15:40 | 48.60922 | 8.74322 | 5453 ft | 271 kts | 81° |
| 2026-05-04 15:40 | 48.61207 | 8.76611 | 5207 ft | 269 kts | 80° |
| 2026-05-04 15:40 | 48.61567 | 8.79364 | 5016 ft | 262 kts | 79° |
| 2026-05-04 15:41 | 48.61913 | 8.82016 | 4867 ft | 252 kts | 78° |
| 2026-05-04 15:41 | 48.62239 | 8.84563 | 4719 ft | 245 kts | 78° |
| 2026-05-04 15:41 | 48.62573 | 8.87089 | 4570 ft | 245 kts | 78° |
| 2026-05-04 15:41 | 48.62796 | 8.88792 | 4460 ft | 245 kts | 78° |
| 2026-05-04 15:42 | 48.63239 | 8.92086 | 4259 ft | 235 kts | 74° |
| 2026-05-04 15:42 | 48.63524 | 8.93677 | 4163 ft | 229 kts | 72° |
| 2026-05-04 15:42 | 48.63960 | 8.95940 | 4054 ft | 219 kts | 72° |
| 2026-05-04 15:42 | 48.64375 | 8.98085 | 4008 ft | 206 kts | 72° |
| 2026-05-04 15:43 | 48.64765 | 9.00111 | 3947 ft | 197 kts | 72° |
| 2026-05-04 15:43 | 48.65144 | 9.02081 | 3728 ft | 194 kts | 71° |
| 2026-05-04 15:43 | 48.65508 | 9.03978 | 3487 ft | 181 kts | 71° |
| 2026-05-04 15:43 | 48.65839 | 9.05710 | 3280 ft | 162 kts | 70° |
| 2026-05-04 15:44 | 48.66143 | 9.07294 | 3063 ft | 153 kts | 72° |
| 2026-05-04 15:44 | 48.66429 | 9.08786 | 2861 ft | 144 kts | 71° |
| 2026-05-04 15:44 | 48.66710 | 9.10251 | 2672 ft | 145 kts | 70° |
| 2026-05-04 15:44 | 48.66993 | 9.11730 | 2486 ft | 146 kts | 71° |
| 2026-05-04 15:45 | 48.67269 | 9.13192 | 2281 ft | 145 kts | 70° |
| 2026-05-04 15:45 | 48.67557 | 9.14656 | 2041 ft | 145 kts | 71° |
| 2026-05-04 15:45 | 48.67834 | 9.16118 | 1833 ft | 144 kts | 70° |
| 2026-05-04 15:45 | 48.68102 | 9.17581 | 1606 ft | 144 kts | 70° |
| 2026-05-04 15:46 | 48.68387 | 9.19032 | 1444 ft | 144 kts | 71° |
| 2026-05-04 15:46 | 48.68661 | 9.20487 | 1307 ft | 144 kts | 70° |
| 2026-05-04 15:46 | 48.68922 | 9.21837 | 1258 ft | 109 kts | 75° |
| 2026-05-04 15:46 | 48.69066 | 9.22614 | 1230 ft | 49 kts | 74° |
| 2026-05-04 15:47 | 48.69135 | 9.22903 | 1223 ft | 21 kts | 45° |
| 2026-05-04 15:47 | 48.69208 | 9.23015 | 1222 ft | 9 kts | 45° |
| 2026-05-04 15:47 | 48.69241 | 9.23065 | 1221 ft | 4 kts | 45° |
| 2026-05-04 15:47 | 48.69262 | 9.23097 | 1220 ft | 5 kts | 45° |
| 2026-05-04 15:48 | 48.69297 | 9.23143 | 1219 ft | 7 kts | 30° |
| 2026-05-04 15:48 | 48.69355 | 9.23161 | 1218 ft | 9 kts | 354° |
| 2026-05-04 15:48 | 48.69406 | 9.23021 | 1220 ft | 5 kts | 259° |
| 2026-05-04 15:49 | 48.69399 | 9.22985 | 1221 ft | 2 kts | 254° |
| 2026-05-04 15:49 | 48.69392 | 9.22946 | 1222 ft | 4 kts | 254° |
| 2026-05-04 15:49 | 48.69387 | 9.22920 | 1223 ft | 1 kts | 254° |
| 2026-05-04 15:49 | 48.69385 | 9.22909 | 1223 ft | 3 kts | 254° |
| 2026-05-04 15:50 | 48.69376 | 9.22863 | 1224 ft | 10 kts | 254° |
| 2026-05-04 15:50 | 48.69359 | 9.22774 | 1226 ft | 8 kts | 252° |
| 2026-05-04 15:50 | 48.69338 | 9.22668 | 1228 ft | 10 kts | 253° |
| 2026-05-04 15:50 | 48.69321 | 9.22577 | 1231 ft | 10 kts | 254° |
| 2026-05-04 15:51 | 48.69298 | 9.22454 | 1233 ft | 14 kts | 253° |
| 2026-05-04 15:51 | 48.69275 | 9.22328 | 1241 ft | 10 kts | 254° |
| 2026-05-04 15:51 | 48.69252 | 9.22212 | 1247 ft | 16 kts | 254° |
| 2026-05-04 15:51 | 48.69224 | 9.22063 | 1242 ft | 13 kts | 253° |
| 2026-05-04 15:52 | 48.69202 | 9.21949 | 1257 ft | 12 kts | 254° |
| 2026-05-04 15:52 | 48.69169 | 9.21773 | 1249 ft | 18 kts | 253° |
| 2026-05-04 15:52 | 48.69137 | 9.21606 | 1260 ft | 15 kts | 254° |
| 2026-05-04 15:52 | 48.69112 | 9.21476 | 1262 ft | 11 kts | 253° |
| 2026-05-04 15:53 | 48.69092 | 9.21364 | 1262 ft | 14 kts | 255° |
| 2026-05-04 15:53 | 48.69068 | 9.21236 | 1265 ft | 11 kts | 253° |
| 2026-05-04 15:53 | 48.69050 | 9.21148 | 1264 ft | 7 kts | 254° |
| 2026-05-04 15:53 | 48.69029 | 9.21036 | 1272 ft | 12 kts | 253° |
| 2026-05-04 15:54 | 48.69011 | 9.20935 | 1269 ft | 7 kts | 253° |
| 2026-05-04 15:54 | 48.68983 | 9.20790 | 1273 ft | 23 kts | 255° |
| 2026-05-04 15:54 | 48.68962 | 9.20675 | 1275 ft | 7 kts | 255° |
| 2026-05-04 15:54 | 48.68966 | 9.20623 | 1276 ft | 3 kts | 296° |
| 2026-05-04 15:55 | 48.68986 | 9.20590 | 1278 ft | 7 kts | 313° |
| 2026-05-04 15:55 | 48.69022 | 9.20533 | 1277 ft | 8 kts | 314° |
| 2026-05-04 15:55 | 48.69060 | 9.20466 | 1279 ft | 8 kts | 293° |
| 2026-05-04 15:55 | 48.69053 | 9.20382 | 1280 ft | 11 kts | 255° |
| 2026-05-04 15:56 | 48.69043 | 9.20326 | 1283 ft | 0 kts | 255° |
| 2026-05-04 15:56 | 48.69032 | 9.20271 | 1283 ft | 7 kts | 253° |
| 2026-05-04 15:56 | 48.69016 | 9.20187 | 1286 ft | 11 kts | 254° |
| 2026-05-04 15:56 | 48.69008 | 9.20144 | 1286 ft | 0 kts | 255° |
| 2026-05-04 15:57 | 48.68994 | 9.20129 | 1290 ft | 3 kts | 202° |
| 2026-05-04 15:57 | 48.68962 | 9.20142 | 1288 ft | 5 kts | 164° |
| 2026-05-04 15:57 | 48.68946 | 9.20148 | 1286 ft | 0 kts | 166° |
| 2026-05-04 15:57 | 48.68936 | 9.20154 | 1287 ft | 0 kts | 163° |
| 2026-05-04 15:58 | 48.68935 | 9.20154 | 1287 ft | 0 kts | 163° |